createdAt,value
2018-04-15T00:00:55.170Z,37.30
2018-04-15T00:03:24.479Z,38.63
2018-04-15T00:05:54.172Z,41.50
2018-04-15T00:08:23.092Z,39.40
2018-04-15T00:10:52.005Z,35.97
2018-04-15T00:13:22.457Z,37.30
2018-04-15T00:15:52.500Z,36.47
2018-04-15T00:18:22.424Z,41.63
2018-04-15T00:20:51.309Z,39.47
2018-04-15T00:23:21.615Z,37.27
2018-04-15T00:25:50.341Z,37.70
2018-04-15T00:28:20.609Z,35.77
2018-04-15T00:30:49.313Z,37.23
2018-04-15T00:33:19.598Z,35.20
2018-04-15T00:35:48.292Z,36.23
2018-04-15T00:38:17.210Z,39.33
2018-04-15T00:40:46.133Z,35.97
2018-04-15T00:43:15.475Z,42.63
2018-04-15T00:45:44.779Z,41.60
2018-04-15T00:48:13.683Z,36.40
2018-04-15T00:50:43.012Z,36.00
2018-04-15T00:53:13.419Z,39.13
2018-04-15T00:55:43.869Z,39.97
2018-04-15T00:58:13.551Z,33.07
2018-04-15T01:00:43.243Z,34.83
2018-04-15T01:03:12.556Z,40.47
2018-04-15T01:05:41.454Z,39.70
2018-04-15T01:08:11.874Z,38.73
2018-04-15T01:10:41.196Z,41.00
2018-04-15T01:13:11.481Z,39.17
2018-04-15T01:15:41.532Z,37.70
2018-04-15T01:18:10.240Z,35.43
2018-04-15T01:20:40.298Z,35.70
2018-04-15T01:23:09.615Z,42.23
2018-04-15T01:25:38.548Z,43.70
2018-04-15T01:28:08.242Z,36.57
2018-04-15T01:30:37.956Z,38.13
2018-04-15T01:33:06.840Z,43.67
2018-04-15T01:35:37.770Z,40.10
2018-04-15T01:38:07.440Z,40.43
2018-04-15T01:40:36.359Z,37.20
2018-04-15T01:43:05.288Z,37.80
2018-04-15T01:45:35.572Z,35.67
2018-04-15T01:48:04.486Z,36.97
2018-04-15T01:50:34.910Z,38.57
2018-04-15T01:53:03.814Z,37.93
2018-04-15T01:55:33.123Z,33.83
2018-04-15T01:58:02.473Z,41.47
2018-04-15T02:00:31.376Z,38.80
2018-04-15T02:03:00.693Z,39.07
2018-04-15T02:05:29.619Z,44.53
2018-04-15T02:07:58.520Z,38.00
2018-04-15T02:10:28.018Z,36.10
2018-04-15T02:12:58.098Z,46.80
2018-04-15T02:15:28.522Z,43.20
2018-04-15T02:17:57.837Z,40.43
2018-04-15T02:20:27.908Z,42.13
2018-04-15T02:22:57.214Z,42.33
2018-04-15T02:25:26.160Z,36.07
2018-04-15T02:27:55.064Z,41.53
2018-04-15T02:30:24.017Z,46.27
2018-04-15T02:32:54.427Z,46.50
2018-04-15T02:35:23.383Z,48.70
2018-04-15T02:37:53.090Z,37.80
2018-04-15T02:40:22.785Z,47.10
2018-04-15T02:42:51.705Z,47.57
2018-04-15T02:45:20.603Z,41.33
2018-04-15T02:47:49.531Z,42.30
2018-04-15T02:50:18.447Z,49.70
2018-04-15T02:52:48.119Z,50.70
2018-04-15T02:55:17.829Z,44.10
2018-04-15T02:57:46.723Z,48.37
2018-04-15T03:00:16.553Z,49.77
2018-04-15T03:02:46.601Z,43.40
2018-04-15T03:05:15.540Z,47.40
2018-04-15T03:07:44.848Z,44.43
2018-04-15T03:10:14.543Z,45.27
2018-04-15T03:12:43.465Z,46.70
2018-04-15T03:15:13.754Z,41.30
2018-04-15T03:17:43.979Z,38.53
2018-04-15T03:20:13.662Z,44.67
2018-04-15T03:22:43.322Z,47.80
2018-04-15T03:25:13.765Z,50.47
2018-04-15T03:27:44.026Z,57.13
2018-04-15T03:30:12.737Z,67.23
2018-04-15T03:32:43.004Z,63.20
2018-04-15T03:35:11.715Z,72.93
2018-04-15T03:37:40.640Z,64.30
2018-04-15T03:40:10.332Z,72.77
2018-04-15T03:42:39.230Z,72.63
2018-04-15T03:45:09.132Z,73.00
2018-04-15T03:47:38.042Z,76.73
2018-04-15T03:50:07.749Z,69.80
2018-04-15T03:52:36.636Z,71.57
2018-04-15T03:55:06.328Z,72.63
2018-04-15T03:57:35.275Z,72.83
2018-04-15T04:00:05.543Z,70.80
2018-04-15T04:02:34.483Z,65.87
2018-04-15T04:05:03.383Z,70.10
2018-04-15T04:07:33.458Z,65.37
2018-04-15T04:10:03.711Z,64.70
2018-04-15T04:12:32.410Z,69.93
2018-04-15T04:15:01.345Z,67.20
2018-04-15T04:17:42.001Z,60.87
2018-04-15T04:20:22.871Z,64.37
2018-04-15T04:23:03.748Z,54.10
2018-04-15T04:25:46.181Z,59.87
2018-04-15T04:28:15.109Z,59.57
2018-04-15T04:30:44.025Z,58.90
2018-04-15T04:33:14.314Z,55.70
2018-04-15T04:35:43.033Z,52.77
2018-04-15T04:38:11.927Z,62.13
2018-04-15T04:40:40.869Z,55.17
2018-04-15T04:43:09.787Z,53.63
2018-04-15T04:45:39.491Z,57.50
2018-04-15T04:48:08.438Z,59.03
2018-04-15T04:50:38.117Z,63.03
2018-04-15T04:53:07.816Z,64.57
2018-04-15T04:55:36.762Z,63.17
2018-04-15T04:58:06.838Z,57.17
2018-04-15T05:00:35.856Z,67.90
2018-04-15T05:03:06.262Z,62.73
2018-04-15T05:05:35.597Z,59.23
2018-04-15T05:08:04.513Z,69.43
2018-04-15T05:10:33.430Z,71.10
2018-04-15T05:13:02.409Z,61.67
2018-04-15T05:15:32.416Z,53.03
2018-04-15T05:18:01.367Z,64.90
2018-04-15T05:20:31.938Z,65.40
2018-04-15T05:23:01.636Z,71.77
2018-04-15T05:25:31.304Z,66.77
2018-04-15T05:28:01.001Z,65.63
2018-04-15T05:30:31.974Z,65.27
2018-04-15T05:33:01.679Z,69.43
2018-04-15T05:35:31.344Z,65.07
2018-04-15T05:38:00.289Z,68.97
2018-04-15T05:40:29.954Z,59.77
2018-04-15T05:43:00.247Z,69.67
2018-04-15T05:45:29.350Z,77.07
2018-04-15T05:47:58.285Z,79.93
2018-04-15T05:50:27.608Z,74.23
2018-04-15T05:52:57.276Z,72.63
2018-04-15T05:55:26.184Z,73.00
2018-04-15T05:57:56.237Z,69.27
2018-04-15T06:00:26.896Z,65.93
2018-04-15T06:02:57.222Z,60.73
2018-04-15T06:05:26.687Z,64.20
2018-04-15T06:07:57.570Z,68.90
2018-04-15T06:10:27.955Z,70.00
2018-04-15T06:12:58.113Z,79.20
2018-04-15T06:15:28.504Z,67.33
2018-04-15T06:17:58.100Z,70.77
2018-04-15T06:20:27.102Z,66.43
2018-04-15T06:22:56.061Z,62.73
2018-04-15T06:25:25.730Z,63.70
2018-04-15T06:27:54.766Z,67.70
2018-04-15T06:30:24.481Z,70.30
2018-04-15T06:32:53.615Z,75.73
2018-04-15T06:35:22.594Z,68.87
2018-04-15T06:37:51.618Z,60.10
2018-04-15T06:40:20.597Z,67.90
2018-04-15T06:42:49.538Z,61.60
2018-04-15T06:45:20.129Z,51.97
2018-04-15T06:47:49.234Z,66.60
2018-04-15T06:50:18.314Z,63.63
2018-04-15T06:52:48.787Z,59.93
2018-04-15T06:55:19.270Z,60.73
2018-04-15T06:57:49.768Z,68.73
2018-04-15T07:00:18.850Z,59.37
2018-04-15T07:02:47.865Z,63.87
2018-04-15T07:05:17.941Z,64.87
2018-04-15T07:07:46.981Z,57.60
2018-04-15T07:10:19.367Z,64.27
2018-04-15T07:12:48.336Z,66.13
2018-04-15T07:15:18.897Z,54.10
2018-04-15T07:17:47.948Z,65.53
2018-04-15T07:20:16.916Z,57.30
2018-04-15T07:22:45.886Z,61.43
2018-04-15T07:25:14.878Z,56.40
2018-04-15T07:27:44.016Z,51.83
2018-04-15T07:30:12.960Z,62.20
2018-04-15T07:32:41.932Z,62.43
2018-04-15T07:35:10.880Z,56.90
2018-04-15T07:37:39.804Z,58.73
2018-04-15T07:40:09.512Z,59.20
2018-04-15T07:42:38.506Z,60.63
2018-04-15T07:45:07.436Z,60.50
2018-04-15T07:47:36.390Z,62.53
2018-04-15T07:50:07.688Z,60.90
2018-04-15T07:52:37.456Z,55.67
2018-04-15T07:55:06.646Z,53.87
2018-04-15T07:57:37.021Z,56.93
2018-04-15T08:00:08.244Z,54.30
2018-04-15T08:02:37.224Z,62.97
2018-04-15T08:05:06.199Z,55.13
2018-04-15T08:07:35.117Z,54.93
2018-04-15T08:10:05.388Z,56.50
2018-04-15T08:12:34.125Z,58.40
2018-04-15T08:15:03.076Z,59.87
2018-04-15T08:17:32.132Z,62.73
2018-04-15T08:20:02.573Z,58.63
2018-04-15T08:22:32.262Z,55.10
2018-04-15T08:25:01.191Z,51.73
2018-04-15T08:27:30.112Z,58.90
2018-04-15T08:29:59.877Z,58.30
2018-04-15T08:32:29.242Z,58.80
2018-04-15T08:34:58.549Z,52.97
2018-04-15T08:37:27.487Z,59.10
2018-04-15T08:39:56.850Z,56.67
2018-04-15T08:42:25.760Z,59.47
2018-04-15T08:44:55.468Z,59.00
2018-04-15T08:47:24.447Z,53.40
2018-04-15T08:49:54.526Z,56.30
2018-04-15T08:52:23.936Z,60.77
2018-04-15T08:54:52.862Z,62.47
2018-04-15T08:57:23.581Z,55.00
2018-04-15T08:59:52.587Z,58.10
2018-04-15T09:02:21.588Z,52.67
2018-04-15T09:04:50.515Z,60.13
2018-04-15T09:07:19.437Z,56.30
2018-04-15T09:09:48.456Z,53.47
2018-04-15T09:12:18.137Z,54.83
2018-04-15T09:14:47.082Z,58.03
2018-04-15T09:17:16.014Z,60.53
2018-04-15T09:19:46.293Z,60.70
2018-04-15T09:22:15.414Z,56.13
2018-04-15T09:24:44.330Z,57.63
2018-04-15T09:27:13.312Z,53.57
2018-04-15T09:29:43.596Z,61.43
2018-04-15T09:32:12.316Z,52.87
2018-04-15T09:34:42.602Z,57.10
2018-04-15T09:37:11.317Z,48.60
2018-04-15T09:39:40.353Z,51.17
2018-04-15T09:42:09.263Z,53.80
2018-04-15T09:44:38.330Z,43.47
2018-04-15T09:47:07.271Z,46.80
2018-04-15T09:49:37.713Z,51.90
2018-04-15T09:52:07.502Z,55.03
2018-04-15T09:54:37.418Z,47.57
2018-04-15T09:57:06.380Z,46.83
2018-04-15T09:59:35.387Z,48.00
2018-04-15T10:02:05.644Z,52.43
2018-04-15T10:04:34.416Z,56.13
2018-04-15T10:07:03.870Z,57.73
2018-04-15T10:09:32.798Z,55.60
2018-04-15T10:12:02.552Z,51.50
2018-04-15T10:14:32.397Z,50.20
2018-04-15T10:17:02.710Z,60.13
2018-04-15T10:19:32.332Z,51.27
2018-04-15T10:22:01.693Z,49.57
2018-04-15T10:24:31.560Z,52.53
2018-04-15T10:27:00.868Z,50.87
2018-04-15T10:29:29.854Z,48.47
2018-04-15T10:31:58.818Z,44.43
2018-04-15T10:34:27.801Z,45.33
2018-04-15T10:36:57.926Z,48.30
2018-04-15T10:39:40.246Z,47.70
2018-04-15T10:42:09.708Z,47.37
2018-04-15T10:44:39.056Z,39.80
2018-04-15T10:47:07.988Z,42.00
2018-04-15T10:49:38.060Z,41.83
2018-04-15T10:52:07.366Z,42.63
2018-04-15T10:54:36.304Z,40.60
2018-04-15T10:57:05.245Z,40.97
2018-04-15T10:59:34.958Z,41.00
2018-04-15T11:02:03.922Z,41.47
2018-04-15T11:04:32.840Z,40.90
2018-04-15T11:07:03.108Z,42.47
2018-04-15T11:09:31.840Z,38.30
2018-04-15T11:12:01.529Z,34.73
2018-04-15T11:14:31.260Z,39.33
2018-04-15T11:17:03.522Z,36.07
2018-04-15T11:19:32.694Z,35.87
2018-04-15T11:22:01.645Z,35.03
2018-04-15T11:24:31.004Z,36.47
2018-04-15T11:27:01.279Z,37.63
2018-04-15T11:29:30.048Z,37.37
2018-04-15T11:32:00.234Z,36.87
2018-04-15T11:34:29.212Z,33.60
2018-04-15T11:36:59.478Z,32.40
2018-04-15T11:39:28.210Z,29.10
2018-04-15T11:41:58.494Z,36.50
2018-04-15T11:44:27.619Z,38.73
2018-04-15T11:46:57.908Z,32.47
2018-04-15T11:49:26.616Z,30.90
2018-04-15T11:51:56.327Z,33.23
2018-04-15T11:54:25.238Z,27.10
2018-04-15T11:56:55.538Z,26.40
2018-04-15T11:59:24.268Z,21.93
2018-04-15T12:01:54.524Z,23.53
2018-04-15T12:04:24.613Z,25.87
2018-04-15T12:06:54.657Z,25.67
2018-04-15T12:09:24.165Z,23.03
2018-04-15T12:11:53.128Z,22.20
2018-04-15T12:14:23.395Z,22.93
2018-04-15T12:16:53.641Z,24.40
2018-04-15T12:19:22.594Z,23.07
2018-04-15T12:21:51.536Z,24.70
2018-04-15T12:24:20.502Z,22.53
2018-04-15T12:26:49.494Z,24.00
2018-04-15T12:29:19.942Z,24.60
2018-04-15T12:31:49.673Z,24.57
2018-04-15T12:34:19.746Z,25.97
2018-04-15T12:36:48.707Z,23.60
2018-04-15T12:39:18.401Z,22.20
2018-04-15T12:41:48.711Z,23.93
2018-04-15T12:44:18.815Z,25.08
2018-04-15T12:46:48.029Z,23.10
2018-04-15T12:49:18.433Z,21.33
2018-04-15T12:51:47.237Z,22.00
2018-04-15T12:54:16.228Z,21.77
2018-04-15T12:56:45.578Z,22.77
2018-04-15T12:59:14.913Z,21.87
2018-04-15T13:01:45.415Z,19.17
2018-04-15T13:04:15.701Z,20.00
2018-04-15T13:06:45.547Z,19.17
2018-04-15T13:09:15.850Z,16.43
2018-04-15T13:11:45.319Z,17.30
2018-04-15T13:14:15.397Z,17.17
2018-04-15T13:16:45.690Z,14.40
2018-04-15T13:19:15.741Z,13.83
2018-04-15T13:21:44.493Z,13.83
2018-04-15T13:24:13.419Z,13.40
2018-04-15T13:26:43.706Z,14.23
2018-04-15T13:29:13.201Z,14.30
2018-04-15T13:31:42.887Z,14.07
2018-04-15T13:34:13.211Z,13.27
2018-04-15T13:36:41.921Z,12.87
2018-04-15T13:39:10.845Z,12.13
2018-04-15T13:41:39.779Z,11.30
2018-04-15T13:44:09.465Z,11.60
2018-04-15T13:46:38.427Z,11.30
2018-04-15T13:49:07.471Z,11.33
2018-04-15T13:51:36.801Z,10.67
2018-04-15T13:54:05.732Z,12.17
2018-04-15T13:56:35.421Z,12.67
2018-04-15T13:59:05.489Z,13.10
2018-04-15T14:01:35.550Z,11.30
2018-04-15T14:04:04.494Z,10.77
2018-04-15T14:06:34.338Z,10.33
2018-04-15T14:09:04.626Z,12.80
2018-04-15T14:11:34.704Z,12.53
2018-04-15T14:14:04.587Z,11.47
2018-04-15T14:16:33.526Z,11.30
2018-04-15T14:19:02.555Z,14.10
2018-04-15T14:21:32.806Z,11.73
2018-04-15T14:24:02.313Z,11.70
2018-04-15T14:26:32.575Z,10.73
2018-04-15T14:29:01.300Z,10.90
2018-04-15T14:31:30.682Z,10.37
2018-04-15T14:34:00.009Z,10.87
2018-04-15T14:36:29.662Z,12.30
2018-04-15T14:39:00.401Z,10.97
2018-04-15T14:41:29.343Z,11.63
2018-04-15T14:43:59.035Z,10.30
2018-04-15T14:46:28.980Z,11.50
2018-04-15T14:48:59.731Z,10.27
2018-04-15T14:51:30.745Z,9.77
2018-04-15T14:54:00.158Z,10.10
2018-04-15T14:56:31.852Z,9.50
2018-04-15T14:59:01.256Z,10.40
2018-04-15T15:01:30.267Z,11.80
2018-04-15T15:04:00.938Z,11.10
2018-04-15T15:06:32.165Z,11.17
2018-04-15T15:09:02.461Z,10.57
2018-04-15T15:11:33.804Z,11.77
2018-04-15T15:14:04.089Z,10.17
2018-04-15T15:16:34.586Z,10.03
2018-04-15T15:19:04.987Z,9.70
2018-04-15T15:21:34.390Z,10.30
2018-04-15T15:24:04.331Z,9.40
2018-04-15T15:26:35.789Z,9.30
2018-04-15T15:29:06.891Z,9.73
2018-04-15T15:31:35.912Z,8.90
2018-04-15T15:34:06.201Z,9.47
2018-04-15T15:36:37.474Z,10.40
2018-04-15T15:39:08.975Z,9.67
2018-04-15T15:41:38.902Z,10.10
2018-04-15T15:44:10.425Z,11.27
2018-04-15T15:46:40.822Z,11.87
2018-04-15T15:49:10.230Z,12.53
2018-04-15T15:51:40.186Z,12.07
2018-04-15T15:54:09.530Z,12.70
2018-04-15T15:56:38.875Z,12.10
2018-04-15T15:59:07.843Z,11.47
2018-04-15T16:01:38.150Z,10.80
2018-04-15T16:04:07.170Z,11.80
2018-04-15T16:06:37.700Z,11.87
2018-04-15T16:09:07.773Z,10.70
2018-04-15T16:11:38.218Z,11.97
2018-04-15T16:14:07.832Z,12.07
2018-04-15T16:16:38.434Z,11.00
2018-04-15T16:19:09.264Z,12.63
2018-04-15T16:21:39.362Z,10.53
2018-04-15T16:24:10.074Z,10.83
2018-04-15T16:26:39.574Z,9.90
2018-04-15T16:29:08.577Z,12.23
2018-04-15T16:31:38.732Z,10.63
2018-04-15T16:34:09.385Z,12.23
2018-04-15T16:36:38.448Z,10.53
2018-04-15T16:39:08.975Z,10.23
2018-04-15T16:41:39.049Z,11.23
2018-04-15T16:44:09.772Z,13.17
2018-04-15T16:46:40.284Z,14.57
2018-04-15T16:49:09.081Z,13.77
2018-04-15T16:51:39.442Z,16.53
2018-04-15T16:54:10.322Z,17.03
2018-04-15T16:56:41.530Z,20.30
2018-04-15T16:59:12.880Z,19.40
2018-04-15T17:01:44.081Z,18.97
2018-04-15T17:04:16.295Z,18.00
2018-04-15T17:06:46.645Z,21.40
2018-04-15T17:09:16.507Z,17.87
2018-04-15T17:11:46.616Z,16.07
2018-04-15T17:14:15.557Z,16.57
2018-04-15T17:16:46.036Z,19.20
2018-04-15T17:19:17.309Z,18.17
2018-04-15T17:21:47.225Z,19.63
2018-04-15T17:24:16.569Z,16.43
2018-04-15T17:26:46.507Z,21.00
2018-04-15T17:29:17.499Z,19.57
2018-04-15T17:31:46.867Z,21.67
2018-04-15T17:34:16.605Z,21.87
2018-04-15T17:36:46.342Z,23.53
2018-04-15T17:39:16.662Z,20.50
2018-04-15T17:41:46.747Z,22.33
2018-04-15T17:44:15.505Z,19.70
2018-04-15T17:46:45.606Z,20.23
2018-04-15T17:49:15.781Z,20.93
2018-04-15T17:51:45.130Z,23.03
2018-04-15T17:54:15.208Z,21.17
2018-04-15T17:56:44.545Z,20.37
2018-04-15T17:59:13.508Z,21.73
2018-04-15T18:01:42.843Z,22.90
2018-04-15T18:04:12.702Z,22.17
2018-04-15T18:06:42.435Z,22.60
2018-04-15T18:09:11.348Z,21.53
2018-04-15T18:11:41.104Z,22.23
2018-04-15T18:14:10.037Z,23.30
2018-04-15T18:16:39.848Z,23.80
2018-04-15T18:19:09.557Z,22.07
2018-04-15T18:21:38.523Z,23.50
2018-04-15T18:24:08.817Z,23.87
2018-04-15T18:26:37.953Z,25.27
2018-04-15T18:29:08.257Z,23.10
2018-04-15T18:31:37.378Z,23.90
2018-04-15T18:34:06.341Z,24.30
2018-04-15T18:36:36.376Z,24.07
2018-04-15T18:39:06.075Z,21.90
2018-04-15T18:41:35.020Z,22.67
2018-04-15T18:44:04.008Z,25.37
2018-04-15T18:46:34.474Z,30.10
2018-04-15T18:49:03.606Z,24.10
2018-04-15T18:51:33.923Z,29.20
2018-04-15T18:54:03.652Z,25.67
2018-04-15T18:56:33.379Z,30.57
2018-04-15T18:59:02.372Z,25.23
2018-04-15T19:01:33.039Z,25.10
2018-04-15T19:04:03.127Z,28.30
2018-04-15T19:06:32.670Z,29.67
2018-04-15T19:09:02.964Z,29.80
2018-04-15T19:11:35.170Z,27.50
2018-04-15T19:14:04.122Z,26.07
2018-04-15T19:16:35.214Z,26.30
2018-04-15T19:19:05.311Z,24.67
2018-04-15T19:21:35.217Z,26.77
2018-04-15T19:24:04.949Z,25.60
2018-04-15T19:26:35.435Z,29.43
2018-04-15T19:29:05.525Z,25.87
2018-04-15T19:31:35.865Z,30.13
2018-04-15T19:34:05.356Z,28.20
2018-04-15T19:36:35.840Z,28.47
2018-04-15T19:39:04.834Z,27.27
2018-04-15T19:41:34.829Z,30.03
2018-04-15T19:44:04.589Z,26.10
2018-04-15T19:46:33.535Z,26.20
2018-04-15T19:49:03.257Z,27.43
2018-04-15T19:51:33.473Z,25.60
2018-04-15T19:54:03.537Z,27.10
2018-04-15T19:56:32.481Z,25.77
2018-04-15T19:59:02.190Z,25.00
2018-04-15T20:01:32.514Z,24.13
2018-04-15T20:04:01.639Z,25.10
2018-04-15T20:06:32.129Z,21.70
2018-04-15T20:09:00.861Z,22.10
2018-04-15T20:11:30.601Z,23.70
2018-04-15T20:14:00.965Z,21.67
2018-04-15T20:16:31.040Z,23.20
2018-04-15T20:19:00.590Z,22.20
2018-04-15T20:21:30.886Z,19.87
2018-04-15T20:24:00.428Z,25.73
2018-04-15T20:26:29.401Z,20.77
2018-04-15T20:28:59.857Z,21.70
2018-04-15T20:31:29.078Z,23.20
2018-04-15T20:33:59.546Z,21.13
2018-04-15T20:36:29.627Z,24.83
2018-04-15T20:38:59.134Z,22.27
2018-04-15T20:41:28.072Z,20.40
2018-04-15T20:43:57.797Z,23.03
2018-04-15T20:46:26.772Z,22.77
2018-04-15T20:48:56.498Z,21.87
2018-04-15T20:51:26.234Z,20.37
2018-04-15T20:53:56.317Z,22.27
2018-04-15T20:56:25.640Z,19.17
2018-04-15T20:58:55.341Z,20.23
2018-04-15T21:01:25.644Z,25.10
2018-04-15T21:03:55.122Z,21.87
2018-04-15T21:06:25.704Z,21.47
2018-04-15T21:08:54.434Z,25.40
2018-04-15T21:11:23.440Z,22.97
2018-04-15T21:13:53.543Z,22.63
2018-04-15T21:16:22.504Z,25.60
2018-04-15T21:18:52.231Z,21.70
2018-04-15T21:21:21.191Z,24.50
2018-04-15T21:23:50.150Z,25.10
2018-04-15T21:26:19.511Z,20.53
2018-04-15T21:28:48.580Z,20.23
2018-04-15T21:31:17.562Z,20.20
2018-04-15T21:33:47.641Z,22.97
2018-04-15T21:36:18.762Z,23.97
2018-04-15T21:38:47.452Z,23.87
2018-04-15T21:41:16.367Z,25.27
2018-04-15T21:43:46.069Z,25.00
2018-04-15T21:46:15.405Z,22.33
2018-04-15T21:48:45.990Z,26.07
2018-04-15T21:51:15.687Z,23.30
2018-04-15T21:53:45.392Z,25.00
2018-04-15T21:56:15.478Z,24.23
2018-04-15T21:58:45.917Z,28.23
2018-04-15T22:01:14.837Z,29.20
2018-04-15T22:03:43.774Z,28.60
2018-04-15T22:06:14.200Z,24.20
2018-04-15T22:08:43.181Z,24.87
2018-04-15T22:11:12.876Z,28.10
2018-04-15T22:13:43.177Z,24.10
2018-04-15T22:16:12.640Z,27.13
2018-04-15T22:18:41.576Z,26.80
2018-04-15T22:21:10.700Z,27.47
2018-04-15T22:23:40.960Z,24.77
2018-04-15T22:26:10.446Z,26.47
2018-04-15T22:28:40.250Z,29.80
2018-04-15T22:31:09.164Z,25.93
2018-04-15T22:33:38.972Z,29.00
2018-04-15T22:36:07.880Z,24.77
2018-04-15T22:38:36.808Z,30.80
2018-04-15T22:41:06.901Z,27.57
2018-04-15T22:43:36.601Z,25.97
2018-04-15T22:46:05.938Z,27.47
2018-04-15T22:48:41.396Z,28.63
2018-04-15T22:51:10.726Z,28.87
2018-04-15T22:53:39.661Z,26.50
2018-04-15T22:56:09.928Z,24.10
2018-04-15T22:58:44.302Z,28.57
2018-04-15T23:01:13.224Z,25.83
2018-04-15T23:03:43.556Z,27.23
2018-04-15T23:06:14.352Z,27.67
2018-04-15T23:08:44.095Z,25.40
2018-04-15T23:11:13.414Z,25.77
2018-04-15T23:13:43.703Z,29.80
2018-04-15T23:16:13.791Z,29.83
2018-04-15T23:18:43.263Z,29.27
2018-04-15T23:21:12.208Z,25.90
2018-04-15T23:23:41.528Z,31.60
2018-04-15T23:26:11.578Z,26.10
2018-04-15T23:28:41.273Z,28.37
2018-04-15T23:31:10.207Z,30.00
2018-04-15T23:33:39.149Z,31.80
2018-04-15T23:36:09.573Z,32.17
2018-04-15T23:38:38.515Z,28.87
2018-04-15T23:41:07.887Z,30.90
2018-04-15T23:43:37.630Z,30.33
2018-04-15T23:46:07.324Z,32.70
2018-04-15T23:48:36.277Z,32.97
2018-04-15T23:51:06.542Z,33.87
2018-04-15T23:53:35.271Z,30.40
2018-04-15T23:56:04.565Z,30.70
2018-04-15T23:58:35.109Z,31.03
